Flight Track Log - Related Links

Times and Time Zones

All times are in EDT time to prevent confusion due to time zone crossing. See the KAP2 flight status page for this flight to view local times or setup timezone preferences in your user account.

Time Position Orientation Groundspeed Altitude Reporting Facility
EDT Latitude Longitude Course Direction KTS MPH feet Rate Location/Type
Sat 08:02:00 AM 42.3500 -71.0167 166° South 128 147 700  Level KA90
Sat 08:03:24 AM 42.3000 -71.0000 166° South 135 155 1,800 846 Climbing KA90
Sat 08:04:36 AM 42.2667 -70.9833 160° South 131 151 2,900 773 Climbing KA90
Sat 08:05:36 AM 42.2333 -70.9667 160° South 135 155 3,500 286 Climbing KA90
Sat 08:06:42 AM 42.1833 -70.9333 154° Southeast 168 193 3,500 -56 Level KA90
Sat 08:07:24 AM 42.1500 -70.9167 160° South 175 201 3,400 -59 Descending KA90
Sat 08:08:24 AM 42.1000 -70.9000 166° South 166 191 3,400  Level KA90
Sat 08:09:24 AM 42.0667 -70.8833 160° South 161 185 3,400  Level KA90
Sat 08:10:18 AM 42.0333 -70.8667 160° South 160 184 3,400  Level KA90
Sat 08:12:00 AM 41.9702 -70.8396 162° South  Level FlightAware
Sat 08:19:00 AM 41.7084 -70.7356 164° South  Level FlightAware
Sat 08:20:00 AM 41.6710 -70.7210 164° South  Level FlightAware
Sat 08:21:00 AM 41.6335 -70.7065 164° South  Level FlightAware
Sat 08:22:00 AM 41.5993 -70.6831 164° South  Level FlightAware
Sat 08:23:00 AM 41.5618 -70.6690 164° South  Level FlightAware
Sat 08:24:00 AM 41.5243 -70.6549 164° South  Level FlightAware
Sat 08:25:00 AM 41.4867 -70.6408 164° South  Level FlightAware
Sat 08:26:00 AM 41.4492 -70.6264 163° South  Level FlightAware
Sat 08:27:00 AM 41.4119 -70.6114 163° South  Level FlightAware
Sat 08:28:00 AM 41.3934 -70.6139 163° South  Level Estimated
Sat 08:29:00 AM 41.3934 -70.6139 163° South  Level Estimated
Sat 08:30:00 AM 41.3934 -70.6139 163° South  Level Estimated
Sat 08:31:00 AM 41.3934 -70.6139 163° South  Level Estimated
Sat 08:32:00 AM 41.3934 -70.6139 163° South  Level Estimated
Sat 08:33:00 AM 41.3934 -70.6139 163° South  Level Estimated

Login

Don't have an account? Register now (free) for customized features, flight alerts, and more!